sensor_id;sensor_type;location;lat;lon;timestamp;P1;durP1;ratioP1;P2;durP2;ratioP2
51985;SDS011;38002;53.296;6.600;2023-04-25T00:08:46;17.17;;;3.37;;
51985;SDS011;38002;53.296;6.600;2023-04-25T00:13:46;9.82;;;2.03;;
51985;SDS011;38002;53.296;6.600;2023-04-25T00:18:48;16.50;;;2.22;;
51985;SDS011;38002;53.296;6.600;2023-04-25T00:23:52;12.25;;;2.97;;
51985;SDS011;38002;53.296;6.600;2023-04-25T00:28:53;9.48;;;1.67;;
51985;SDS011;38002;53.296;6.600;2023-04-25T00:33:53;17.17;;;3.22;;
51985;SDS011;38002;53.296;6.600;2023-04-25T00:38:54;13.60;;;2.28;;
51985;SDS011;38002;53.296;6.600;2023-04-25T00:43:57;14.18;;;3.05;;
51985;SDS011;38002;53.296;6.600;2023-04-25T00:53:59;14.77;;;2.08;;
51985;SDS011;38002;53.296;6.600;2023-04-25T00:59:01;7.68;;;1.80;;
51985;SDS011;38002;53.296;6.600;2023-04-25T01:04:02;8.98;;;1.80;;
51985;SDS011;38002;53.296;6.600;2023-04-25T01:09:02;9.60;;;2.30;;
51985;SDS011;38002;53.296;6.600;2023-04-25T01:14:04;7.57;;;2.03;;
51985;SDS011;38002;53.296;6.600;2023-04-25T01:19:11;15.85;;;2.10;;
51985;SDS011;38002;53.296;6.600;2023-04-25T01:24:12;6.78;;;1.60;;
51985;SDS011;38002;53.296;6.600;2023-04-25T01:29:13;11.80;;;1.73;;
51985;SDS011;38002;53.296;6.600;2023-04-25T01:34:13;12.82;;;2.67;;
51985;SDS011;38002;53.296;6.600;2023-04-25T01:39:14;12.32;;;2.40;;
51985;SDS011;38002;53.296;6.600;2023-04-25T01:44:15;11.50;;;2.67;;
51985;SDS011;38002;53.296;6.600;2023-04-25T01:49:16;18.95;;;3.25;;
51985;SDS011;38002;53.296;6.600;2023-04-25T01:54:17;20.02;;;3.28;;
51985;SDS011;38002;53.296;6.600;2023-04-25T01:59:18;10.93;;;2.33;;
51985;SDS011;38002;53.296;6.600;2023-04-25T02:04:20;20.85;;;2.25;;
51985;SDS011;38002;53.296;6.600;2023-04-25T02:09:20;49.15;;;3.35;;
51985;SDS011;38002;53.296;6.600;2023-04-25T02:14:21;11.98;;;2.42;;
51985;SDS011;38002;53.296;6.600;2023-04-25T02:19:22;9.05;;;1.95;;
51985;SDS011;38002;53.296;6.600;2023-04-25T02:24:22;11.52;;;2.42;;
51985;SDS011;38002;53.296;6.600;2023-04-25T02:29:23;14.02;;;2.75;;
51985;SDS011;38002;53.296;6.600;2023-04-25T02:34:23;11.77;;;1.85;;
51985;SDS011;38002;53.296;6.600;2023-04-25T02:39:24;4.53;;;1.27;;
51985;SDS011;38002;53.296;6.600;2023-04-25T02:44:25;13.60;;;1.73;;
51985;SDS011;38002;53.296;6.600;2023-04-25T02:49:25;11.20;;;1.92;;
51985;SDS011;38002;53.296;6.600;2023-04-25T02:54:26;7.45;;;1.92;;
51985;SDS011;38002;53.296;6.600;2023-04-25T02:59:26;11.07;;;2.00;;
51985;SDS011;38002;53.296;6.600;2023-04-25T03:04:26;19.23;;;1.77;;
51985;SDS011;38002;53.296;6.600;2023-04-25T03:09:27;13.25;;;2.28;;
51985;SDS011;38002;53.296;6.600;2023-04-25T03:14:27;7.63;;;1.60;;
51985;SDS011;38002;53.296;6.600;2023-04-25T03:19:28;7.10;;;1.63;;
51985;SDS011;38002;53.296;6.600;2023-04-25T03:24:28;10.77;;;2.10;;
51985;SDS011;38002;53.296;6.600;2023-04-25T03:29:29;10.32;;;1.85;;
51985;SDS011;38002;53.296;6.600;2023-04-25T03:34:29;13.75;;;1.75;;
51985;SDS011;38002;53.296;6.600;2023-04-25T03:39:30;3.92;;;1.15;;
51985;SDS011;38002;53.296;6.600;2023-04-25T03:44:31;8.70;;;1.63;;
51985;SDS011;38002;53.296;6.600;2023-04-25T03:49:32;6.22;;;1.77;;
51985;SDS011;38002;53.296;6.600;2023-04-25T03:54:32;11.43;;;1.33;;
51985;SDS011;38002;53.296;6.600;2023-04-25T03:59:33;7.57;;;1.00;;
51985;SDS011;38002;53.296;6.600;2023-04-25T04:04:33;9.27;;;1.77;;
51985;SDS011;38002;53.296;6.600;2023-04-25T04:09:34;7.85;;;1.52;;
51985;SDS011;38002;53.296;6.600;2023-04-25T04:14:34;9.80;;;1.45;;
51985;SDS011;38002;53.296;6.600;2023-04-25T04:19:35;10.75;;;1.67;;
51985;SDS011;38002;53.296;6.600;2023-04-25T04:24:36;7.50;;;1.33;;
51985;SDS011;38002;53.296;6.600;2023-04-25T04:29:36;10.45;;;1.85;;
51985;SDS011;38002;53.296;6.600;2023-04-25T04:34:37;6.43;;;1.67;;
51985;SDS011;38002;53.296;6.600;2023-04-25T04:39:37;6.97;;;2.05;;
51985;SDS011;38002;53.296;6.600;2023-04-25T04:44:38;6.85;;;1.38;;
51985;SDS011;38002;53.296;6.600;2023-04-25T04:49:39;7.60;;;1.88;;
51985;SDS011;38002;53.296;6.600;2023-04-25T04:54:39;7.85;;;1.77;;
51985;SDS011;38002;53.296;6.600;2023-04-25T04:59:40;5.28;;;1.15;;
51985;SDS011;38002;53.296;6.600;2023-04-25T05:04:40;3.63;;;0.98;;
51985;SDS011;38002;53.296;6.600;2023-04-25T05:09:41;2.55;;;0.93;;
51985;SDS011;38002;53.296;6.600;2023-04-25T05:14:41;4.15;;;0.80;;
51985;SDS011;38002;53.296;6.600;2023-04-25T05:19:42;5.43;;;0.85;;
51985;SDS011;38002;53.296;6.600;2023-04-25T05:24:42;9.27;;;1.80;;
51985;SDS011;38002;53.296;6.600;2023-04-25T05:29:43;5.45;;;1.23;;
51985;SDS011;38002;53.296;6.600;2023-04-25T05:34:43;5.85;;;1.10;;
51985;SDS011;38002;53.296;6.600;2023-04-25T05:39:47;7.60;;;1.50;;
51985;SDS011;38002;53.296;6.600;2023-04-25T05:44:47;4.72;;;1.52;;
51985;SDS011;38002;53.296;6.600;2023-04-25T05:49:48;5.53;;;1.33;;
51985;SDS011;38002;53.296;6.600;2023-04-25T05:54:48;4.10;;;1.35;;
51985;SDS011;38002;53.296;6.600;2023-04-25T05:59:49;10.55;;;1.52;;
51985;SDS011;38002;53.296;6.600;2023-04-25T06:04:50;4.43;;;1.17;;
51985;SDS011;38002;53.296;6.600;2023-04-25T06:09:51;5.80;;;1.00;;
51985;SDS011;38002;53.296;6.600;2023-04-25T06:14:51;4.43;;;1.00;;
51985;SDS011;38002;53.296;6.600;2023-04-25T06:19:52;4.32;;;0.90;;
51985;SDS011;38002;53.296;6.600;2023-04-25T06:24:52;5.88;;;1.42;;
51985;SDS011;38002;53.296;6.600;2023-04-25T06:29:53;5.25;;;1.00;;
51985;SDS011;38002;53.296;6.600;2023-04-25T06:34:53;4.00;;;0.80;;
51985;SDS011;38002;53.296;6.600;2023-04-25T06:39:54;7.35;;;1.40;;
51985;SDS011;38002;53.296;6.600;2023-04-25T06:44:55;7.38;;;1.38;;
51985;SDS011;38002;53.296;6.600;2023-04-25T06:49:55;3.63;;;0.70;;
51985;SDS011;38002;53.296;6.600;2023-04-25T06:54:56;3.65;;;0.90;;
51985;SDS011;38002;53.296;6.600;2023-04-25T06:59:56;6.97;;;1.42;;
51985;SDS011;38002;53.296;6.600;2023-04-25T07:04:57;4.25;;;1.58;;
51985;SDS011;38002;53.296;6.600;2023-04-25T07:09:59;14.38;;;1.95;;
51985;SDS011;38002;53.296;6.600;2023-04-25T07:15:00;18.05;;;2.17;;
51985;SDS011;38002;53.296;6.600;2023-04-25T07:20:05;4.50;;;1.10;;
51985;SDS011;38002;53.296;6.600;2023-04-25T07:25:07;8.45;;;1.30;;
51985;SDS011;38002;53.296;6.600;2023-04-25T07:30:09;5.87;;;1.10;;
51985;SDS011;38002;53.296;6.600;2023-04-25T07:35:09;11.38;;;2.25;;
51985;SDS011;38002;53.296;6.600;2023-04-25T07:40:10;10.27;;;1.35;;
51985;SDS011;38002;53.296;6.600;2023-04-25T07:45:11;5.25;;;1.20;;
51985;SDS011;38002;53.296;6.600;2023-04-25T07:50:11;10.02;;;1.42;;
51985;SDS011;38002;53.296;6.600;2023-04-25T07:55:12;7.55;;;1.13;;
51985;SDS011;38002;53.296;6.600;2023-04-25T08:00:12;2.45;;;0.80;;
51985;SDS011;38002;53.296;6.600;2023-04-25T08:05:14;7.25;;;1.05;;
51985;SDS011;38002;53.296;6.600;2023-04-25T08:10:16;5.50;;;1.13;;
51985;SDS011;38002;53.296;6.600;2023-04-25T08:15:16;2.00;;;1.13;;
51985;SDS011;38002;53.296;6.600;2023-04-25T08:20:17;2.55;;;0.90;;
51985;SDS011;38002;53.296;6.600;2023-04-25T08:25:18;1.45;;;0.63;;
51985;SDS011;38002;53.296;6.600;2023-04-25T08:30:18;4.60;;;0.70;;
51985;SDS011;38002;53.296;6.600;2023-04-25T08:35:19;3.95;;;0.80;;
51985;SDS011;38002;53.296;6.600;2023-04-25T08:40:20;4.80;;;1.23;;
51985;SDS011;38002;53.296;6.600;2023-04-25T08:45:28;3.92;;;1.38;;
51985;SDS011;38002;53.296;6.600;2023-04-25T08:50:32;5.75;;;1.20;;
51985;SDS011;38002;53.296;6.600;2023-04-25T08:55:32;2.33;;;1.00;;
51985;SDS011;38002;53.296;6.600;2023-04-25T09:00:33;10.63;;;1.23;;
51985;SDS011;38002;53.296;6.600;2023-04-25T09:05:34;5.05;;;0.93;;
51985;SDS011;38002;53.296;6.600;2023-04-25T09:10:36;10.13;;;1.35;;
51985;SDS011;38002;53.296;6.600;2023-04-25T09:15:50;5.85;;;1.35;;
51985;SDS011;38002;53.296;6.600;2023-04-25T09:20:52;7.97;;;1.20;;
51985;SDS011;38002;53.296;6.600;2023-04-25T09:25:54;6.05;;;1.63;;
51985;SDS011;38002;53.296;6.600;2023-04-25T09:30:55;8.25;;;1.40;;
51985;SDS011;38002;53.296;6.600;2023-04-25T09:36:04;6.43;;;1.17;;
51985;SDS011;38002;53.296;6.600;2023-04-25T09:41:07;10.07;;;1.15;;
51985;SDS011;38002;53.296;6.600;2023-04-25T09:46:11;6.27;;;1.20;;
51985;SDS011;38002;53.296;6.600;2023-04-25T09:51:12;10.32;;;1.45;;
51985;SDS011;38002;53.296;6.600;2023-04-25T09:56:13;13.52;;;1.48;;
51985;SDS011;38002;53.296;6.600;2023-04-25T10:01:14;7.15;;;1.40;;
51985;SDS011;38002;53.296;6.600;2023-04-25T10:06:18;6.05;;;1.20;;
51985;SDS011;38002;53.296;6.600;2023-04-25T10:11:20;4.05;;;0.90;;
51985;SDS011;38002;53.296;6.600;2023-04-25T10:16:23;3.25;;;0.70;;
51985;SDS011;38002;53.296;6.600;2023-04-25T10:21:25;4.88;;;1.13;;
51985;SDS011;38002;53.296;6.600;2023-04-25T10:26:28;5.03;;;0.90;;
51985;SDS011;38002;53.296;6.600;2023-04-25T10:31:29;4.57;;;1.23;;
51985;SDS011;38002;53.296;6.600;2023-04-25T10:36:31;7.85;;;1.60;;
51985;SDS011;38002;53.296;6.600;2023-04-25T10:41:32;7.80;;;1.50;;
51985;SDS011;38002;53.296;6.600;2023-04-25T10:46:46;2.00;;;0.70;;
51985;SDS011;38002;53.296;6.600;2023-04-25T10:51:46;9.10;;;1.00;;
51985;SDS011;38002;53.296;6.600;2023-04-25T10:56:48;8.05;;;1.13;;
51985;SDS011;38002;53.296;6.600;2023-04-25T11:01:51;7.18;;;1.45;;
51985;SDS011;38002;53.296;6.600;2023-04-25T11:12:02;4.07;;;1.00;;
51985;SDS011;38002;53.296;6.600;2023-04-25T11:17:03;6.72;;;1.27;;
51985;SDS011;38002;53.296;6.600;2023-04-25T11:22:03;6.32;;;1.20;;
51985;SDS011;38002;53.296;6.600;2023-04-25T11:27:04;11.38;;;1.15;;
51985;SDS011;38002;53.296;6.600;2023-04-25T11:32:08;5.82;;;1.10;;
51985;SDS011;38002;53.296;6.600;2023-04-25T11:37:08;13.27;;;2.25;;
51985;SDS011;38002;53.296;6.600;2023-04-25T11:42:08;5.75;;;1.48;;
51985;SDS011;38002;53.296;6.600;2023-04-25T11:47:09;9.90;;;1.70;;
51985;SDS011;38002;53.296;6.600;2023-04-25T11:52:09;4.82;;;1.23;;
51985;SDS011;38002;53.296;6.600;2023-04-25T11:57:11;6.05;;;1.02;;
51985;SDS011;38002;53.296;6.600;2023-04-25T12:02:23;6.25;;;1.13;;
51985;SDS011;38002;53.296;6.600;2023-04-25T12:07:29;10.68;;;1.63;;
51985;SDS011;38002;53.296;6.600;2023-04-25T12:12:33;9.73;;;1.92;;
51985;SDS011;38002;53.296;6.600;2023-04-25T12:17:35;7.32;;;1.33;;
51985;SDS011;38002;53.296;6.600;2023-04-25T12:22:37;8.38;;;1.17;;
51985;SDS011;38002;53.296;6.600;2023-04-25T12:27:38;2.85;;;1.20;;
51985;SDS011;38002;53.296;6.600;2023-04-25T12:32:41;9.40;;;1.20;;
51985;SDS011;38002;53.296;6.600;2023-04-25T12:37:42;3.47;;;0.90;;
51985;SDS011;38002;53.296;6.600;2023-04-25T12:42:42;5.15;;;1.08;;
51985;SDS011;38002;53.296;6.600;2023-04-25T12:47:43;10.98;;;1.10;;
51985;SDS011;38002;53.296;6.600;2023-04-25T12:52:43;5.18;;;1.25;;
51985;SDS011;38002;53.296;6.600;2023-04-25T12:57:44;2.35;;;0.93;;
51985;SDS011;38002;53.296;6.600;2023-04-25T13:02:44;4.43;;;0.70;;
51985;SDS011;38002;53.296;6.600;2023-04-25T13:07:46;6.97;;;1.55;;
51985;SDS011;38002;53.296;6.600;2023-04-25T13:12:46;3.28;;;0.90;;
51985;SDS011;38002;53.296;6.600;2023-04-25T13:17:47;6.40;;;1.60;;
51985;SDS011;38002;53.296;6.600;2023-04-25T13:22:47;10.45;;;1.73;;
51985;SDS011;38002;53.296;6.600;2023-04-25T13:27:48;9.40;;;1.33;;
51985;SDS011;38002;53.296;6.600;2023-04-25T13:32:48;5.83;;;0.70;;
51985;SDS011;38002;53.296;6.600;2023-04-25T13:37:49;2.57;;;0.90;;
51985;SDS011;38002;53.296;6.600;2023-04-25T13:42:50;3.10;;;0.88;;
51985;SDS011;38002;53.296;6.600;2023-04-25T13:47:51;3.47;;;1.00;;
51985;SDS011;38002;53.296;6.600;2023-04-25T13:52:51;3.88;;;0.75;;
51985;SDS011;38002;53.296;6.600;2023-04-25T13:57:52;5.22;;;0.95;;
51985;SDS011;38002;53.296;6.600;2023-04-25T14:02:52;1.55;;;0.68;;
51985;SDS011;38002;53.296;6.600;2023-04-25T14:07:53;7.60;;;1.10;;
51985;SDS011;38002;53.296;6.600;2023-04-25T14:12:53;6.57;;;1.20;;
51985;SDS011;38002;53.296;6.600;2023-04-25T14:17:54;4.45;;;1.10;;
51985;SDS011;38002;53.296;6.600;2023-04-25T14:22:55;5.35;;;1.25;;
51985;SDS011;38002;53.296;6.600;2023-04-25T14:27:58;2.35;;;0.95;;
51985;SDS011;38002;53.296;6.600;2023-04-25T14:32:59;5.32;;;1.05;;
51985;SDS011;38002;53.296;6.600;2023-04-25T14:38:00;4.03;;;0.70;;
51985;SDS011;38002;53.296;6.600;2023-04-25T14:43:00;4.35;;;1.25;;
51985;SDS011;38002;53.296;6.600;2023-04-25T14:48:01;2.65;;;0.68;;
51985;SDS011;38002;53.296;6.600;2023-04-25T14:53:01;5.60;;;0.98;;
51985;SDS011;38002;53.296;6.600;2023-04-25T14:58:02;12.98;;;1.67;;
51985;SDS011;38002;53.296;6.600;2023-04-25T15:03:02;3.67;;;0.85;;
51985;SDS011;38002;53.296;6.600;2023-04-25T15:08:04;5.30;;;1.00;;
51985;SDS011;38002;53.296;6.600;2023-04-25T15:13:04;6.80;;;1.10;;
51985;SDS011;38002;53.296;6.600;2023-04-25T15:18:05;2.70;;;0.77;;
51985;SDS011;38002;53.296;6.600;2023-04-25T15:23:06;6.40;;;1.23;;
51985;SDS011;38002;53.296;6.600;2023-04-25T15:28:06;4.05;;;0.70;;
51985;SDS011;38002;53.296;6.600;2023-04-25T15:33:07;1.98;;;1.00;;
51985;SDS011;38002;53.296;6.600;2023-04-25T15:38:08;3.65;;;1.23;;
51985;SDS011;38002;53.296;6.600;2023-04-25T15:43:10;6.88;;;1.30;;
51985;SDS011;38002;53.296;6.600;2023-04-25T15:48:14;11.20;;;1.20;;
51985;SDS011;38002;53.296;6.600;2023-04-25T15:53:15;9.82;;;1.20;;
51985;SDS011;38002;53.296;6.600;2023-04-25T15:58:16;7.95;;;1.48;;
51985;SDS011;38002;53.296;6.600;2023-04-25T16:03:16;2.10;;;1.10;;
51985;SDS011;38002;53.296;6.600;2023-04-25T16:08:17;3.10;;;0.82;;
51985;SDS011;38002;53.296;6.600;2023-04-25T16:13:17;7.82;;;0.90;;
51985;SDS011;38002;53.296;6.600;2023-04-25T16:18:18;4.40;;;0.90;;
51985;SDS011;38002;53.296;6.600;2023-04-25T16:23:18;4.57;;;0.82;;
51985;SDS011;38002;53.296;6.600;2023-04-25T16:28:18;12.48;;;1.35;;
51985;SDS011;38002;53.296;6.600;2023-04-25T16:33:19;6.03;;;1.00;;
51985;SDS011;38002;53.296;6.600;2023-04-25T16:38:20;5.97;;;0.80;;
51985;SDS011;38002;53.296;6.600;2023-04-25T16:43:20;5.43;;;1.08;;
51985;SDS011;38002;53.296;6.600;2023-04-25T16:48:21;4.78;;;0.95;;
51985;SDS011;38002;53.296;6.600;2023-04-25T16:58:24;4.32;;;1.05;;
51985;SDS011;38002;53.296;6.600;2023-04-25T17:03:26;8.93;;;1.17;;
51985;SDS011;38002;53.296;6.600;2023-04-25T17:08:27;4.13;;;0.80;;
51985;SDS011;38002;53.296;6.600;2023-04-25T17:13:28;4.73;;;1.20;;
51985;SDS011;38002;53.296;6.600;2023-04-25T17:18:30;5.73;;;1.37;;
51985;SDS011;38002;53.296;6.600;2023-04-25T17:28:33;4.65;;;0.95;;
51985;SDS011;38002;53.296;6.600;2023-04-25T17:33:33;6.85;;;1.35;;
51985;SDS011;38002;53.296;6.600;2023-04-25T17:38:33;7.55;;;1.20;;
51985;SDS011;38002;53.296;6.600;2023-04-25T17:43:35;8.23;;;1.50;;
51985;SDS011;38002;53.296;6.600;2023-04-25T17:48:36;6.60;;;1.40;;
51985;SDS011;38002;53.296;6.600;2023-04-25T17:53:36;1.73;;;1.15;;
51985;SDS011;38002;53.296;6.600;2023-04-25T17:58:37;7.50;;;1.42;;
51985;SDS011;38002;53.296;6.600;2023-04-25T18:03:37;5.32;;;1.33;;
51985;SDS011;38002;53.296;6.600;2023-04-25T18:08:39;8.90;;;1.77;;
51985;SDS011;38002;53.296;6.600;2023-04-25T18:13:40;5.18;;;2.03;;
51985;SDS011;38002;53.296;6.600;2023-04-25T18:18:40;10.13;;;1.65;;
51985;SDS011;38002;53.296;6.600;2023-04-25T18:23:43;6.05;;;1.85;;
51985;SDS011;38002;53.296;6.600;2023-04-25T18:28:44;7.32;;;1.70;;
51985;SDS011;38002;53.296;6.600;2023-04-25T18:33:44;12.32;;;2.10;;
51985;SDS011;38002;53.296;6.600;2023-04-25T18:38:45;7.55;;;2.90;;
51985;SDS011;38002;53.296;6.600;2023-04-25T18:43:49;7.93;;;1.90;;
51985;SDS011;38002;53.296;6.600;2023-04-25T18:48:50;6.73;;;1.60;;
51985;SDS011;38002;53.296;6.600;2023-04-25T18:53:54;6.68;;;1.88;;
51985;SDS011;38002;53.296;6.600;2023-04-25T18:58:55;4.70;;;2.30;;
51985;SDS011;38002;53.296;6.600;2023-04-25T19:03:56;7.10;;;2.05;;
51985;SDS011;38002;53.296;6.600;2023-04-25T19:08:57;4.13;;;1.30;;
51985;SDS011;38002;53.296;6.600;2023-04-25T19:13:57;5.20;;;1.92;;
51985;SDS011;38002;53.296;6.600;2023-04-25T19:18:58;1.77;;;1.42;;
51985;SDS011;38002;53.296;6.600;2023-04-25T19:23:58;4.88;;;2.00;;
51985;SDS011;38002;53.296;6.600;2023-04-25T19:29:08;5.35;;;1.95;;
51985;SDS011;38002;53.296;6.600;2023-04-25T19:34:11;5.00;;;2.10;;
51985;SDS011;38002;53.296;6.600;2023-04-25T19:39:12;7.10;;;2.28;;
51985;SDS011;38002;53.296;6.600;2023-04-25T19:44:12;3.97;;;2.35;;
51985;SDS011;38002;53.296;6.600;2023-04-25T19:49:13;5.55;;;2.10;;
51985;SDS011;38002;53.296;6.600;2023-04-25T19:54:13;5.30;;;2.17;;
51985;SDS011;38002;53.296;6.600;2023-04-25T19:59:13;5.15;;;2.30;;
51985;SDS011;38002;53.296;6.600;2023-04-25T20:04:14;14.00;;;4.60;;
51985;SDS011;38002;53.296;6.600;2023-04-25T20:09:14;7.75;;;3.22;;
51985;SDS011;38002;53.296;6.600;2023-04-25T20:14:15;11.95;;;3.72;;
51985;SDS011;38002;53.296;6.600;2023-04-25T20:19:16;18.92;;;6.00;;
51985;SDS011;38002;53.296;6.600;2023-04-25T20:24:16;7.65;;;3.97;;
51985;SDS011;38002;53.296;6.600;2023-04-25T20:29:17;13.30;;;4.82;;
51985;SDS011;38002;53.296;6.600;2023-04-25T20:34:17;5.88;;;2.00;;
51985;SDS011;38002;53.296;6.600;2023-04-25T20:39:20;6.90;;;2.53;;
51985;SDS011;38002;53.296;6.600;2023-04-25T20:44:21;14.57;;;5.03;;
51985;SDS011;38002;53.296;6.600;2023-04-25T20:49:22;20.65;;;6.43;;
51985;SDS011;38002;53.296;6.600;2023-04-25T20:54:23;7.28;;;3.10;;
51985;SDS011;38002;53.296;6.600;2023-04-25T20:59:26;13.48;;;5.10;;
51985;SDS011;38002;53.296;6.600;2023-04-25T21:04:26;11.00;;;3.10;;
51985;SDS011;38002;53.296;6.600;2023-04-25T21:09:27;7.28;;;2.28;;
51985;SDS011;38002;53.296;6.600;2023-04-25T21:14:27;6.43;;;2.33;;
51985;SDS011;38002;53.296;6.600;2023-04-25T21:19:28;8.07;;;2.30;;
51985;SDS011;38002;53.296;6.600;2023-04-25T21:24:29;11.65;;;2.00;;
51985;SDS011;38002;53.296;6.600;2023-04-25T21:29:31;13.52;;;3.17;;
51985;SDS011;38002;53.296;6.600;2023-04-25T21:34:32;4.32;;;2.05;;
51985;SDS011;38002;53.296;6.600;2023-04-25T21:39:32;5.50;;;1.80;;
51985;SDS011;38002;53.296;6.600;2023-04-25T21:44:33;11.00;;;2.42;;
51985;SDS011;38002;53.296;6.600;2023-04-25T21:49:34;7.43;;;2.28;;
51985;SDS011;38002;53.296;6.600;2023-04-25T21:54:35;6.40;;;2.08;;
51985;SDS011;38002;53.296;6.600;2023-04-25T21:59:35;4.10;;;1.67;;
51985;SDS011;38002;53.296;6.600;2023-04-25T22:04:36;16.25;;;3.50;;
51985;SDS011;38002;53.296;6.600;2023-04-25T22:09:36;6.60;;;2.10;;
51985;SDS011;38002;53.296;6.600;2023-04-25T22:14:37;10.50;;;2.70;;
51985;SDS011;38002;53.296;6.600;2023-04-25T22:19:37;6.07;;;2.15;;
51985;SDS011;38002;53.296;6.600;2023-04-25T22:24:38;6.35;;;1.90;;
51985;SDS011;38002;53.296;6.600;2023-04-25T22:29:39;5.97;;;2.28;;
51985;SDS011;38002;53.296;6.600;2023-04-25T22:34:40;7.20;;;1.65;;
51985;SDS011;38002;53.296;6.600;2023-04-25T22:39:41;1.90;;;1.50;;
51985;SDS011;38002;53.296;6.600;2023-04-25T22:44:41;9.18;;;2.08;;
51985;SDS011;38002;53.296;6.600;2023-04-25T22:49:42;5.50;;;1.80;;
51985;SDS011;38002;53.296;6.600;2023-04-25T22:54:44;3.20;;;1.50;;
51985;SDS011;38002;53.296;6.600;2023-04-25T22:59:45;9.32;;;1.60;;
51985;SDS011;38002;53.296;6.600;2023-04-25T23:04:45;2.30;;;1.58;;
51985;SDS011;38002;53.296;6.600;2023-04-25T23:09:46;5.18;;;1.55;;
51985;SDS011;38002;53.296;6.600;2023-04-25T23:14:49;4.75;;;1.92;;
51985;SDS011;38002;53.296;6.600;2023-04-25T23:19:51;8.82;;;1.83;;
51985;SDS011;38002;53.296;6.600;2023-04-25T23:24:51;3.17;;;1.42;;
51985;SDS011;38002;53.296;6.600;2023-04-25T23:29:52;2.35;;;1.27;;
51985;SDS011;38002;53.296;6.600;2023-04-25T23:34:56;5.80;;;2.03;;
51985;SDS011;38002;53.296;6.600;2023-04-25T23:39:57;2.63;;;1.35;;
51985;SDS011;38002;53.296;6.600;2023-04-25T23:44:57;4.65;;;1.52;;
51985;SDS011;38002;53.296;6.600;2023-04-25T23:49:58;4.88;;;1.55;;
51985;SDS011;38002;53.296;6.600;2023-04-25T23:54:58;6.75;;;1.90;;
51985;SDS011;38002;53.296;6.600;2023-04-25T23:59:59;6.97;;;1.70;;
